Time;durP1;ratioP1;P1;durP2;ratioP2;P2;SDS_P1;SDS_P2;PMS_P1;PMS_P2;Temp;Humidity;BMP_temperature;BMP_pressure;BME280_temperature;BME280_humidity;BME280_pressure;Samples;Min_cycle;Max_cycle;Signal;HPM_P1;HPM_P2
2023/09/25 00:00:07;;;;;;;;;2.00;2.00;;;;;16.84;55.20;101525.34;4941201;28;45530;-68
2023/09/25 00:02:33;;;;;;;;;2.67;2.67;;;;;16.94;55.37;101549.34;4947737;28;46680;-70
2023/09/25 00:04:58;;;;;;;;;2.00;2.00;;;;;16.89;55.12;101538.28;4941850;28;45329;-69
2023/09/25 00:07:24;;;;;;;;;3.00;2.67;;;;;16.95;55.41;101554.56;4941816;28;45351;-68
2023/09/25 00:09:49;;;;;;;;;4.00;4.00;;;;;16.88;55.75;101552.72;4950400;28;45617;-69
2023/09/25 00:12:14;;;;;;;;;4.67;2.00;;;;;16.75;55.42;101533.53;4942972;28;64958;-68
2023/09/25 00:14:40;;;;;;;;;2.00;2.00;;;;;16.89;55.56;101562.44;4950563;28;45381;-69
2023/09/25 00:17:05;;;;;;;;;3.00;3.00;;;;;16.89;55.71;101563.28;4924491;28;45732;-69
2023/09/25 00:19:31;;;;;;;;;2.00;2.00;;;;;16.90;55.70;101558.75;4951264;28;50638;-69
2023/09/25 00:21:57;;;;;;;;;3.00;3.00;;;;;16.88;55.75;101560.75;4947716;28;47885;-69
2023/09/25 00:24:22;;;;;;;;;4.75;3.50;;;;;16.57;55.69;101515.69;4940551;28;58077;-69
2023/09/25 00:26:48;;;;;;;;;4.00;3.00;;;;;16.86;55.82;101569.00;4945652;28;45429;-70
2023/09/25 00:29:14;;;;;;;;;2.67;2.67;;;;;16.88;55.79;101571.50;4940912;28;45521;-73
2023/09/25 00:31:39;;;;;;;;;3.50;2.50;;;;;16.84;55.60;101564.78;4951012;28;45810;-69
2023/09/25 00:34:04;;;;;;;;;4.00;3.00;;;;;16.82;56.25;101567.66;4950395;28;45374;-68
2023/09/25 00:36:30;;;;;;;;;2.33;2.33;;;;;16.83;56.11;101571.16;4949893;28;45469;-69
2023/09/25 00:38:55;;;;;;;;;3.00;3.00;;;;;16.80;55.93;101571.47;4945680;28;45450;-68
2023/09/25 00:41:20;;;;;;;;;2.67;2.67;;;;;16.80;56.32;101572.31;4955513;28;50192;-69
2023/09/25 00:43:46;;;;;;;;;10.00;5.67;;;;;16.75;56.36;101569.28;4950654;28;45180;-70
2023/09/25 00:46:12;;;;;;;;;4.33;3.00;;;;;16.42;56.43;101506.59;4944526;28;45474;-69
2023/09/25 00:48:42;;;;;;;;;3.00;3.00;;;;;16.70;56.43;101548.31;4941295;28;45533;-68
2023/09/25 00:51:08;;;;;;;;;3.00;2.67;;;;;16.47;56.46;101512.31;4950040;28;47748;-69
2023/09/25 00:53:34;;;;;;;;;4.00;3.00;;;;;16.75;56.46;101550.50;4940306;28;46551;-68
2023/09/25 00:56:00;;;;;;;;;5.67;4.00;;;;;16.55;56.68;101531.09;4943190;28;45292;-69
2023/09/25 00:58:25;;;;;;;;;4.00;3.00;;;;;16.67;56.78;101548.63;4950143;28;45522;-69
2023/09/25 01:00:52;;;;;;;;;4.67;4.00;;;;;16.70;56.80;101552.84;4948217;28;47170;-69
2023/09/25 01:03:18;;;;;;;;;2.33;2.33;;;;;16.62;57.09;101545.56;4940054;28;45418;-68
2023/09/25 01:05:44;;;;;;;;;6.00;4.00;;;;;16.63;56.84;101549.94;4946898;28;45331;-69
2023/09/25 01:08:10;;;;;;;;;3.33;2.33;;;;;16.57;56.97;101541.69;4947101;28;45247;-69
2023/09/25 01:10:37;;;;;;;;;4.67;4.00;;;;;16.63;56.55;101557.16;4947135;28;45727;-69
2023/09/25 01:13:03;;;;;;;;;2.33;2.33;;;;;16.59;56.93;101559.31;4939092;28;45597;-70
2023/09/25 01:15:29;;;;;;;;;3.33;2.00;;;;;16.54;57.01;101553.59;4951511;28;45282;-69
2023/09/25 01:17:55;;;;;;;;;4.33;2.33;;;;;16.43;57.33;101535.13;4942498;28;45342;-69
2023/09/25 01:20:22;;;;;;;;;2.67;2.67;;;;;16.44;57.44;101558.28;4958010;28;46751;-70
2023/09/25 01:22:49;;;;;;;;;2.33;2.33;;;;;16.36;57.89;101547.47;4949349;28;45524;-70
2023/09/25 01:25:18;;;;;;;;;3.00;3.00;;;;;16.20;57.50;101537.53;4941788;28;45521;-69
2023/09/25 01:27:44;;;;;;;;;4.00;3.00;;;;;16.30;58.00;101550.81;4941153;28;45618;-68
2023/09/25 01:30:11;;;;;;;;;2.67;2.67;;;;;16.25;58.07;101551.31;4941406;28;47093;-69
2023/09/25 01:32:37;;;;;;;;;4.00;3.00;;;;;15.58;58.37;101452.88;4946735;28;45469;-69
2023/09/25 01:35:08;;;;;;;;;2.00;2.00;;;;;16.04;58.45;101538.31;4938857;28;45660;-69
2023/09/25 01:37:34;;;;;;;;;5.00;4.00;;;;;16.13;58.68;101549.91;4946520;28;45575;-68
2023/09/25 01:39:59;;;;;;;;;3.33;3.33;;;;;16.06;58.34;101543.50;4952236;28;46602;-68
2023/09/25 01:42:25;;;;;;;;;5.00;3.67;;;;;16.04;58.61;101551.72;4949204;28;45498;-68
2023/09/25 01:44:50;;;;;;;;;2.67;1.33;;;;;15.99;58.91;101540.59;4945941;28;45161;-69
2023/09/25 01:47:17;;;;;;;;;3.00;3.00;;;;;16.00;58.75;101554.84;4944856;28;45402;-69
2023/09/25 01:49:43;;;;;;;;;4.33;3.33;;;;;15.81;59.53;101529.94;4956277;28;46780;-69
2023/09/25 01:52:08;;;;;;;;;4.67;4.67;;;;;15.95;59.03;101549.13;4943910;28;45454;-69
2023/09/25 01:54:34;;;;;;;;;5.00;3.67;;;;;15.89;59.28;101541.75;4946335;28;45876;-69
2023/09/25 01:57:00;;;;;;;;;3.67;3.67;;;;;15.94;59.27;101550.97;4946192;28;45481;-68
2023/09/25 01:59:26;;;;;;;;;5.00;3.33;;;;;15.93;59.49;101541.25;4944338;28;47594;-69
2023/09/25 02:01:51;;;;;;;;;4.67;3.67;;;;;15.63;59.63;101498.88;4939249;28;45336;-68
2023/09/25 02:04:17;;;;;;;;;4.00;4.00;;;;;15.90;59.91;101544.25;4943954;28;45407;-68
2023/09/25 02:06:42;;;;;;;;;4.67;4.00;;;;;15.87;59.64;101539.22;4947889;28;45470;-69
2023/09/25 02:09:10;;;;;;;;;3.67;3.67;;;;;15.91;59.34;101540.56;4946145;28;46803;-68
2023/09/25 02:11:36;;;;;;;;;3.00;3.00;;;;;15.88;59.40;101535.53;4938336;28;45358;-71
2023/09/25 02:14:01;;;;;;;;;3.00;3.00;;;;;15.96;59.52;101540.94;4946193;28;45421;-68
2023/09/25 02:16:26;;;;;;;;;5.33;4.33;;;;;15.94;59.83;101531.38;4946556;28;45449;-68
2023/09/25 02:18:51;;;;;;;;;6.67;5.00;;;;;15.87;60.02;101530.34;4948296;28;47418;-69
2023/09/25 02:21:17;;;;;;;;;4.00;4.00;;;;;15.50;59.72;101467.94;4952550;28;45406;-69
2023/09/25 02:23:42;;;;;;;;;6.00;4.00;;;;;15.76;60.50;101540.31;4944766;28;63256;-69
2023/09/25 02:26:08;;;;;;;;;7.33;6.00;;;;;15.67;60.53;101541.28;4946171;28;45580;-69
2023/09/25 02:28:33;;;;;;;;;3.67;3.67;;;;;15.66;61.08;101547.66;4937770;28;59432;-69
2023/09/25 02:30:58;;;;;;;;;3.67;3.67;;;;;15.59;61.29;101545.72;4946052;28;45560;-68
2023/09/25 02:33:24;;;;;;;;;3.00;2.33;;;;;15.53;61.80;101555.22;4942876;28;45509;-69
2023/09/25 02:35:49;;;;;;;;;3.67;3.67;;;;;15.47;61.73;101551.31;4940410;28;62607;-68
2023/09/25 02:38:14;;;;;;;;;3.33;3.33;;;;;15.36;61.93;101551.56;4944945;28;58690;-69
2023/09/25 02:40:39;;;;;;;;;3.00;3.00;;;;;14.90;62.11;101478.53;4944289;28;48090;-69
2023/09/25 02:43:05;;;;;;;;;3.00;2.00;;;;;15.23;62.20;101535.06;4940379;28;45396;-67
2023/09/25 02:45:30;;;;;;;;;4.67;4.67;;;;;15.22;62.43;101525.34;4942839;28;45583;-68
2023/09/25 02:47:56;;;;;;;;;3.00;3.00;;;;;15.34;61.83;101539.31;4948264;28;47440;-70
2023/09/25 02:50:21;;;;;;;;;3.33;3.33;;;;;15.36;61.96;101532.81;4938033;28;45392;-69
2023/09/25 02:52:46;;;;;;;;;3.33;2.33;;;;;15.36;61.88;101534.66;4951808;28;57039;-69
2023/09/25 02:55:13;;;;;;;;;5.00;4.33;;;;;15.38;61.89;101533.50;4946884;28;45252;-69
2023/09/25 02:57:38;;;;;;;;;6.00;5.00;;;;;15.37;61.78;101537.16;4943122;28;47383;-69
2023/09/25 03:00:10;;;;;;;;;2.33;2.33;;;;;15.37;61.83;101534.50;4948494;28;45292;-69
2023/09/25 03:02:35;;;;;;;;;2.00;2.00;;;;;15.32;62.06;101530.59;4938310;28;45639;-69
2023/09/25 03:05:01;;;;;;;;;3.00;3.00;;;;;15.34;61.93;101532.13;4945030;28;45498;-69
2023/09/25 03:07:27;;;;;;;;;7.00;2.67;;;;;15.19;62.02;101512.25;4935726;28;46305;-68
2023/09/25 03:09:52;;;;;;;;;4.33;4.33;;;;;15.28;61.91;101538.13;4952430;28;46206;-67
2023/09/25 03:12:18;;;;;;;;;3.67;3.67;;;;;15.24;61.94;101525.19;4944437;28;45486;-67
2023/09/25 03:14:44;;;;;;;;;6.00;5.00;;;;;15.28;62.41;101537.28;4947818;28;45340;-69
2023/09/25 03:17:09;;;;;;;;;3.00;3.00;;;;;15.20;63.01;101546.06;4948425;28;47644;-68
2023/09/25 03:19:35;;;;;;;;;3.00;3.00;;;;;15.13;62.76;101543.16;4944379;28;45270;-68
2023/09/25 03:22:01;;;;;;;;;3.00;3.00;;;;;15.21;62.46;101545.91;4951721;28;45209;-69
2023/09/25 03:24:26;;;;;;;;;3.33;2.67;;;;;15.23;62.44;101553.81;4942295;28;45218;-68
2023/09/25 03:26:51;;;;;;;;;3.00;3.00;;;;;15.27;62.49;101557.88;4941508;28;46366;-68
2023/09/25 03:29:17;;;;;;;;;4.00;3.00;;;;;14.87;62.12;101494.91;4941221;28;45541;-68
2023/09/25 03:31:42;;;;;;;;;3.67;3.00;;;;;15.26;62.23;101556.19;4952011;28;45224;-69
2023/09/25 03:34:07;;;;;;;;;3.67;3.67;;;;;15.27;62.18;101551.66;4945284;28;45598;-68
2023/09/25 03:36:33;;;;;;;;;4.00;4.00;;;;;15.25;61.92;101565.22;4947622;28;45929;-68
2023/09/25 03:38:58;;;;;;;;;4.00;4.00;;;;;15.12;62.25;101543.31;4947945;28;45358;-68
2023/09/25 03:41:24;;;;;;;;;4.00;4.00;;;;;15.16;62.24;101572.31;4948537;28;45377;-68
2023/09/25 03:43:49;;;;;;;;;5.33;3.00;;;;;15.20;62.15;101568.34;4948621;28;45384;-68
2023/09/25 03:46:14;;;;;;;;;6.33;5.67;;;;;15.23;61.92;101572.56;4947333;28;45513;-68
2023/09/25 03:48:40;;;;;;;;;2.00;2.00;;;;;15.09;61.87;101543.63;4949009;28;45342;-69
2023/09/25 03:51:05;;;;;;;;;4.33;3.00;;;;;15.25;61.91;101580.44;4947940;28;48594;-69
2023/09/25 03:53:30;;;;;;;;;4.00;4.00;;;;;15.19;61.86;101571.16;4947880;28;47219;-70
2023/09/25 03:55:56;;;;;;;;;4.33;3.33;;;;;15.18;61.94;101558.78;4947731;28;46766;-68
2023/09/25 03:58:21;;;;;;;;;4.00;4.00;;;;;15.15;62.31;101567.13;4940338;28;45406;-69
2023/09/25 04:00:46;;;;;;;;;2.00;2.00;;;;;15.14;62.40;101560.09;4947865;28;45870;-69
2023/09/25 04:03:11;;;;;;;;;3.00;3.00;;;;;15.08;62.95;101564.22;4945531;28;45580;-69
2023/09/25 04:05:37;;;;;;;;;6.33;5.00;;;;;15.08;62.26;101569.59;4946729;28;66209;-68
2023/09/25 04:08:03;;;;;;;;;5.00;3.00;;;;;15.11;62.06;101571.09;4947503;28;45465;-69
2023/09/25 04:10:29;;;;;;;;;5.00;4.00;;;;;15.03;62.34;101560.34;4948439;28;45560;-69
2023/09/25 04:12:55;;;;;;;;;4.33;4.33;;;;;15.00;62.04;101558.78;4950175;28;45629;-70
2023/09/25 04:15:22;;;;;;;;;3.67;3.67;;;;;15.07;62.34;101578.63;4929289;28;48013;-69
2023/09/25 04:17:50;;;;;;;;;4.00;4.00;;;;;15.11;62.48;101582.66;4956848;28;45508;-69
2023/09/25 04:20:24;;;;;;;;;6.00;4.33;;;;;15.13;62.22;101582.50;4946683;28;45555;-68
2023/09/25 04:22:51;;;;;;;;;3.00;3.00;;;;;15.18;62.68;101588.25;4946493;28;45311;-68
2023/09/25 04:25:20;;;;;;;;;4.00;4.00;;;;;14.84;61.52;101531.88;4939746;28;47377;-68
2023/09/25 04:27:50;;;;;;;;;5.33;3.00;;;;;15.17;62.03;101583.88;4947560;28;45496;-71
2023/09/25 04:30:17;;;;;;;;;4.00;3.00;;;;;15.12;62.18;101575.47;4942252;28;45448;-69
2023/09/25 04:32:44;;;;;;;;;3.00;3.00;;;;;15.06;62.13;101582.28;4951636;28;46381;-69
2023/09/25 04:35:12;;;;;;;;;4.00;3.67;;;;;15.11;62.16;101573.78;4947306;28;47391;-69
2023/09/25 04:37:41;;;;;;;;;6.67;5.00;;;;;14.92;62.05;101548.00;4946867;28;45307;-69
2023/09/25 04:40:22;;;;;;;;;5.00;4.00;;;;;15.16;62.14;101582.19;4939851;28;45470;-68
2023/09/25 04:42:49;;;;;;;;;5.33;4.33;;;;;15.18;62.06;101585.56;4947553;28;45475;-69
2023/09/25 04:45:18;;;;;;;;;5.00;2.00;;;;;14.83;62.17;101528.34;4954465;28;47414;-68
2023/09/25 04:47:44;;;;;;;;;3.67;3.00;;;;;15.18;62.07;101591.75;4946410;28;45491;-68
2023/09/25 04:50:10;;;;;;;;;4.00;4.00;;;;;15.23;61.87;101594.00;4940218;28;45383;-69
2023/09/25 04:52:36;;;;;;;;;6.00;4.67;;;;;14.51;61.87;101482.50;4952790;28;45521;-68
2023/09/25 04:55:12;;;;;;;;;4.67;3.33;;;;;15.09;61.97;101586.50;4941566;28;46217;-69
2023/09/25 04:57:46;;;;;;;;;3.33;3.33;;;;;15.09;62.17;101594.53;4939516;28;45512;-68
2023/09/25 05:00:17;;;;;;;;;3.33;3.33;;;;;15.10;62.17;101599.72;4941651;28;45217;-68
2023/09/25 05:02:48;;;;;;;;;4.00;4.00;;;;;15.09;62.34;101602.56;4951466;28;45449;-69
2023/09/25 05:05:15;;;;;;;;;3.33;3.33;;;;;15.07;62.23;101604.56;4945995;28;47598;-69
2023/09/25 05:07:42;;;;;;;;;5.33;3.00;;;;;14.99;62.18;101583.88;4944281;28;45491;-69
2023/09/25 05:10:10;;;;;;;;;3.00;3.00;;;;;14.95;62.27;101576.31;4941796;28;45353;-70
2023/09/25 05:12:37;;;;;;;;;3.00;2.00;;;;;15.09;62.03;101606.09;4932246;28;45443;-69
2023/09/25 05:15:03;;;;;;;;;5.67;4.00;;;;;15.11;62.24;101611.28;4954505;28;46544;-69
2023/09/25 05:17:28;;;;;;;;;7.67;5.00;;;;;15.14;62.00;101606.47;4946924;28;45497;-69
2023/09/25 05:19:54;;;;;;;;;5.33;4.00;;;;;15.02;62.02;101590.78;4939527;28;45577;-69
2023/09/25 05:22:19;;;;;;;;;5.00;5.00;;;;;15.15;61.95;101612.66;4948945;28;45636;-69
2023/09/25 05:24:45;;;;;;;;;4.00;3.00;;;;;15.08;62.10;101603.56;4949977;28;46754;-69
2023/09/25 05:27:10;;;;;;;;;5.00;3.33;;;;;15.00;62.34;101603.44;4949840;28;45630;-69
2023/09/25 05:29:36;;;;;;;;;4.67;4.33;;;;;15.01;62.27;101616.69;4945828;28;45505;-67
2023/09/25 05:32:04;;;;;;;;;5.67;3.33;;;;;15.02;62.51;101614.88;4939759;28;45477;-70
2023/09/25 05:34:30;;;;;;;;;6.00;6.00;;;;;14.98;62.70;101605.44;4935900;28;47696;-69
2023/09/25 05:36:56;;;;;;;;;5.00;5.00;;;;;14.75;62.58;101572.91;4932628;28;45534;-68
2023/09/25 05:39:24;;;;;;;;;5.33;5.33;;;;;14.52;62.74;101541.22;4946672;28;45275;-68
2023/09/25 05:41:50;;;;;;;;;4.00;4.00;;;;;14.93;62.69;101597.88;4939183;28;45602;-69
2023/09/25 05:44:15;;;;;;;;;5.00;5.00;;;;;14.95;62.65;101603.06;4946002;28;45557;-75
2023/09/25 05:46:41;;;;;;;;;4.00;4.00;;;;;14.87;62.80;101604.69;4943513;28;45639;-68
2023/09/25 05:49:07;;;;;;;;;6.00;4.67;;;;;14.86;62.89;101607.53;4945144;28;45529;-73
2023/09/25 05:51:32;;;;;;;;;4.00;4.00;;;;;14.74;62.87;101593.50;4946112;28;45442;-70
2023/09/25 05:53:57;;;;;;;;;6.33;6.00;;;;;14.87;62.94;101622.59;4943565;28;47189;-69
2023/09/25 05:56:23;;;;;;;;;5.00;5.00;;;;;14.83;63.00;101616.69;4938217;28;45575;-69
2023/09/25 05:58:52;;;;;;;;;4.00;4.00;;;;;14.90;62.77;101625.78;4943532;28;45457;-69
2023/09/25 06:01:18;;;;;;;;;6.00;5.00;;;;;14.95;62.73;101635.22;4948514;28;45409;-69
2023/09/25 06:03:43;;;;;;;;;4.00;4.00;;;;;14.60;62.68;101567.22;4954364;28;45827;-68
2023/09/25 06:06:08;;;;;;;;;3.33;3.33;;;;;14.65;62.39;101573.00;4949241;28;45512;-69
2023/09/25 06:08:34;;;;;;;;;5.67;5.00;;;;;15.00;62.72;101641.78;4946222;28;45999;-69
2023/09/25 06:11:02;;;;;;;;;7.67;5.00;;;;;14.67;62.54;101579.03;4943802;28;45576;-69
2023/09/25 06:13:27;;;;;;;;;4.67;4.67;;;;;14.98;62.51;101635.75;4945711;28;45653;-73
2023/09/25 06:15:52;;;;;;;;;5.00;3.00;;;;;14.96;62.55;101632.38;4947178;28;45405;-69
2023/09/25 06:18:18;;;;;;;;;4.67;4.67;;;;;14.98;62.60;101643.78;4941607;28;45399;-73
2023/09/25 06:20:44;;;;;;;;;4.00;4.00;;;;;14.58;62.39;101587.94;4943453;28;45229;-70
2023/09/25 06:23:09;;;;;;;;;6.00;4.00;;;;;14.94;62.59;101642.41;4948131;28;45288;-70
2023/09/25 06:25:35;;;;;;;;;6.33;5.33;;;;;14.95;62.72;101656.63;4946578;28;45473;-70
2023/09/25 06:28:03;;;;;;;;;5.00;3.67;;;;;14.88;62.64;101621.59;4955882;28;45427;-69
2023/09/25 06:30:30;;;;;;;;;7.00;4.00;;;;;15.00;62.46;101646.31;4950006;28;45828;-70
2023/09/25 06:32:56;;;;;;;;;5.33;5.33;;;;;15.06;62.65;101645.72;4950545;28;46462;-69
2023/09/25 06:35:21;;;;;;;;;6.00;4.00;;;;;14.88;62.51;101606.38;4944687;28;45316;-71
2023/09/25 06:37:47;;;;;;;;;6.00;6.00;;;;;15.18;61.98;101644.50;4947859;28;45335;-71
2023/09/25 06:40:15;;;;;;;;;4.67;4.33;;;;;15.18;61.83;101641.81;4944838;28;45605;-70
2023/09/25 06:42:41;;;;;;;;;6.00;5.00;;;;;15.19;61.76;101648.84;4943887;28;47182;-70
2023/09/25 06:45:08;;;;;;;;;5.33;5.33;;;;;15.21;61.81;101646.84;4941812;28;45912;-68
2023/09/25 06:47:34;;;;;;;;;4.00;4.00;;;;;15.01;61.83;101626.56;4951279;28;45361;-69
2023/09/25 06:49:59;;;;;;;;;5.67;5.67;;;;;15.08;61.78;101638.38;4941451;28;45479;-68
2023/09/25 06:52:25;;;;;;;;;7.67;4.67;;;;;15.16;62.04;101641.97;4939388;28;48262;-71
2023/09/25 06:54:50;;;;;;;;;8.33;6.67;;;;;15.19;61.80;101644.34;4944459;28;45322;-68
2023/09/25 06:57:16;;;;;;;;;5.67;5.67;;;;;14.46;61.85;101508.88;4946805;28;45374;-68
2023/09/25 06:59:41;;;;;;;;;6.00;6.00;;;;;15.35;61.81;101649.03;4942753;28;45489;-69
2023/09/25 07:02:07;;;;;;;;;2.67;2.67;;;;;15.36;61.46;101639.97;4948550;28;45468;-69
2023/09/25 07:04:32;;;;;;;;;7.33;7.33;;;;;15.44;61.41;101650.78;4945041;28;46310;-68
2023/09/25 07:06:58;;;;;;;;;6.00;6.00;;;;;16.12;60.33;101645.66;4956428;28;45524;-68
2023/09/25 07:09:23;;;;;;;;;12.00;11.33;;;;;17.04;58.41;101644.06;4941017;28;45538;-69
2023/09/25 07:11:49;;;;;;;;;6.33;6.33;;;;;18.16;55.89;101652.34;4946519;28;46088;-69
2023/09/25 07:14:15;;;;;;;;;6.67;6.33;;;;;19.09;53.63;101668.69;4941340;28;45735;-69
2023/09/25 07:16:40;;;;;;;;;7.00;7.00;;;;;19.50;51.44;101632.53;4953390;28;45564;-69
2023/09/25 07:19:08;;;;;;;;;7.00;6.00;;;;;19.97;50.86;101662.81;4947512;28;45541;-76
2023/09/25 07:21:35;;;;;;;;;7.67;7.00;;;;;20.28;49.73;101651.03;4952916;28;46427;-77
2023/09/25 07:24:01;;;;;;;;;7.00;5.00;;;;;20.75;48.65;101656.06;4951269;28;45325;-71
2023/09/25 07:26:26;;;;;;;;;5.33;4.67;;;;;21.34;46.89;101637.03;4951446;28;45501;-69
2023/09/25 07:28:51;;;;;;;;;9.00;6.67;;;;;22.20;45.39;101645.03;4950617;28;45248;-69
2023/09/25 07:31:24;;;;;;;;;6.00;6.00;;;;;23.30;43.59;101653.06;4953828;28;45571;-72
2023/09/25 07:33:50;;;;;;;;;7.00;7.00;;;;;24.00;41.66;101608.19;4951044;28;45337;-69
2023/09/25 07:36:20;;;;;;;;;6.00;6.00;;;;;24.83;39.81;101643.75;4950536;28;45386;-69
2023/09/25 07:38:48;;;;;;;;;8.00;6.25;;;;;25.41;38.97;101652.63;4945533;28;45213;-69
2023/09/25 07:41:14;;;;;;;;;4.33;4.33;;;;;26.09;37.52;101651.91;4949876;28;45493;-69
2023/09/25 07:43:41;;;;;;;;;4.00;4.00;;;;;26.30;37.28;101613.28;4944018;28;45527;-68
2023/09/25 07:46:07;;;;;;;;;8.00;8.00;;;;;26.80;36.74;101662.22;4949528;28;45407;-70
2023/09/25 07:48:37;;;;;;;;;9.33;8.67;;;;;26.54;36.61;101662.56;4941218;28;45658;-69
2023/09/25 07:51:07;;;;;;;;;5.00;5.00;;;;;26.22;36.59;101665.38;4942571;28;45823;-69
2023/09/25 07:53:33;;;;;;;;;5.33;5.33;;;;;25.77;37.30;101668.31;4947052;28;45668;-69
2023/09/25 07:55:59;;;;;;;;;7.33;7.00;;;;;25.48;37.67;101658.03;4955097;28;45315;-69
2023/09/25 07:58:27;;;;;;;;;7.00;6.00;;;;;25.18;37.54;101646.91;4946310;28;45526;-70
2023/09/25 08:00:55;;;;;;;;;4.00;4.00;;;;;25.07;38.35;101655.78;4958053;28;45641;-69
2023/09/25 08:03:22;;;;;;;;;10.33;8.00;;;;;24.96;38.98;101640.09;4950465;28;45486;-69
2023/09/25 08:05:47;;;;;;;;;7.00;7.00;;;;;24.99;38.63;101632.38;4952162;28;45556;-68
2023/09/25 08:08:13;;;;;;;;;8.67;7.00;;;;;25.12;38.63;101654.06;4948675;28;45236;-67
2023/09/25 08:10:41;;;;;;;;;10.75;9.25;;;;;25.17;38.66;101654.25;4954671;28;46582;-69
2023/09/25 08:13:07;;;;;;;;;7.67;6.33;;;;;25.04;38.23;101661.66;4947877;28;45272;-70
2023/09/25 08:15:35;;;;;;;;;7.33;7.00;;;;;24.69;38.20;101642.13;4949093;28;45379;-69
2023/09/25 08:18:02;;;;;;;;;6.00;6.00;;;;;24.47;38.84;101653.28;4951820;28;45505;-69
2023/09/25 08:20:28;;;;;;;;;9.00;7.00;;;;;24.15;39.42;101644.09;4948002;28;47109;-69
2023/09/25 08:22:54;;;;;;;;;7.00;7.00;;;;;24.19;39.92;101671.69;4936816;28;47022;-68
2023/09/25 08:25:21;;;;;;;;;10.00;9.00;;;;;24.18;40.37;101673.56;4947456;28;46757;-68
2023/09/25 08:27:48;;;;;;;;;7.33;7.33;;;;;24.04;39.65;101646.66;4952355;28;45331;-68
2023/09/25 08:30:16;;;;;;;;;5.00;5.00;;;;;24.22;39.94;101665.81;4951575;28;46528;-73
2023/09/25 08:32:41;;;;;;;;;6.00;6.00;;;;;24.21;39.39;101672.31;4943619;28;45589;-69
2023/09/25 08:35:07;;;;;;;;;8.00;7.00;;;;;24.07;39.66;101651.66;4950937;28;45621;-70
2023/09/25 08:37:33;;;;;;;;;6.33;6.33;;;;;24.22;40.14;101668.53;4944178;28;45255;-71
2023/09/25 08:39:59;;;;;;;;;6.67;6.67;;;;;24.26;39.45;101656.22;4952642;28;45850;-70
2023/09/25 08:42:26;;;;;;;;;6.00;6.00;;;;;24.24;39.22;101661.88;4941641;28;45290;-70
2023/09/25 08:44:53;;;;;;;;;6.00;5.67;;;;;24.18;39.77;101659.97;4955167;28;45564;-72
2023/09/25 08:47:19;;;;;;;;;8.00;7.00;;;;;24.14;39.16;101657.91;4940520;28;45496;-72
2023/09/25 08:49:52;;;;;;;;;5.33;5.00;;;;;24.07;39.76;101655.22;4937780;28;47528;-70
2023/09/25 08:52:21;;;;;;;;;8.33;5.67;;;;;23.91;39.85;101633.91;4950066;28;45527;-70
2023/09/25 08:54:51;;;;;;;;;7.67;6.33;;;;;24.06;39.57;101663.56;4952291;28;45656;-72
2023/09/25 08:57:18;;;;;;;;;5.33;5.00;;;;;23.95;39.72;101663.16;4951541;28;45437;-74
2023/09/25 08:59:46;;;;;;;;;7.00;5.67;;;;;23.75;40.17;101654.16;4948428;28;46941;-73
2023/09/25 09:02:12;;;;;;;;;7.00;7.00;;;;;23.79;40.14;101646.44;4948459;28;45582;-71
2023/09/25 09:04:38;;;;;;;;;6.00;6.00;;;;;23.98;40.04;101660.00;4936904;28;46558;-69
2023/09/25 09:07:05;;;;;;;;;8.67;7.33;;;;;24.12;39.54;101662.72;4951673;28;45631;-76
2023/09/25 09:09:32;;;;;;;;;7.67;6.67;;;;;24.02;39.70;101629.69;4950862;28;46761;-70
2023/09/25 09:11:58;;;;;;;;;5.67;5.67;;;;;24.16;39.62;101620.50;4955177;28;45553;-73
2023/09/25 09:14:33;;;;;;;;;9.00;8.67;;;;;24.41;38.85;101650.56;4949650;28;45431;-70
2023/09/25 09:16:59;;;;;;;;;5.67;5.00;;;;;24.77;38.28;101663.63;4938583;28;45489;-70
2023/09/25 09:19:25;;;;;;;;;7.00;7.00;;;;;24.67;38.01;101671.41;4947584;28;46601;-70
2023/09/25 09:22:05;;;;;;;;;6.00;4.67;;;;;24.78;38.36;101676.16;4927143;28;45498;-70
2023/09/25 09:24:32;;;;;;;;;5.67;4.67;;;;;24.93;37.56;101675.91;4953672;28;45342;-72
2023/09/25 09:26:58;;;;;;;;;4.67;4.67;;;;;25.25;37.69;101668.66;4946040;28;45509;-70
2023/09/25 09:29:23;;;;;;;;;4.33;4.33;;;;;25.90;36.60;101683.72;4946818;28;45282;-73
2023/09/25 09:31:52;;;;;;;;;7.00;6.00;;;;;26.63;35.25;101653.84;4950945;28;46281;-71
2023/09/25 09:34:22;;;;;;;;;5.33;5.33;;;;;27.49;34.50;101677.28;4952650;28;45428;-70
2023/09/25 09:36:51;;;;;;;;;4.33;4.33;;;;;27.91;33.13;101641.72;4934649;28;45603;-72
2023/09/25 09:39:22;;;;;;;;;6.67;5.67;;;;;28.74;31.97;101678.88;4950700;28;45525;-72
2023/09/25 09:41:50;;;;;;;;;5.33;5.33;;;;;29.20;32.08;101677.06;4956269;28;45582;-71
2023/09/25 09:44:17;;;;;;;;;7.33;6.33;;;;;29.73;31.38;101670.38;4947233;28;45489;-71
2023/09/25 09:46:44;;;;;;;;;6.00;5.33;;;;;30.03;30.68;101680.97;4946948;28;45502;-78
2023/09/25 09:49:15;;;;;;;;;6.00;5.00;;;;;29.89;30.68;101653.91;4945344;28;46650;-72
2023/09/25 09:51:43;;;;;;;;;4.00;3.00;;;;;29.98;30.51;101674.34;4941779;28;45384;-71
2023/09/25 09:54:12;;;;;;;;;5.00;4.00;;;;;29.78;30.19;101679.50;4943630;28;45505;-71
2023/09/25 09:56:39;;;;;;;;;5.00;5.00;;;;;29.57;30.71;101682.97;4952880;28;45575;-70
2023/09/25 09:59:05;;;;;;;;;5.33;5.33;;;;;29.33;31.35;101671.28;4945449;28;45850;-71
2023/09/25 10:01:33;;;;;;;;;5.33;5.33;;;;;29.01;31.45;101674.53;4953577;28;45596;-70
2023/09/25 10:04:00;;;;;;;;;5.67;4.67;;;;;28.56;32.30;101677.13;4939170;28;45507;-70
2023/09/25 10:06:28;;;;;;;;;6.33;6.33;;;;;27.92;32.57;101659.78;4950328;28;45436;-71
2023/09/25 10:09:22;;;;;;;;;6.00;4.00;;;;;27.53;33.63;101686.66;4923777;28;46380;-71
2023/09/25 10:11:48;;;;;;;;;6.00;6.00;;;;;27.10;33.83;101688.75;4929125;28;53242;-71
2023/09/25 10:14:19;;;;;;;;;6.00;5.00;;;;;26.76;34.75;101695.66;4950733;28;45315;-70
2023/09/25 10:17:00;;;;;;;;;4.00;4.00;;;;;26.28;35.17;101689.03;4943037;28;45513;-71
2023/09/25 10:19:40;;;;;;;;;5.67;4.00;;;;;25.91;36.26;101700.91;4942416;28;46127;-70
2023/09/25 10:22:22;;;;;;;;;6.33;4.67;;;;;25.64;36.73;101690.19;4950407;28;45323;-71
2023/09/25 10:24:58;;;;;;;;;5.00;5.00;;;;;25.40;36.85;101685.50;4945851;28;45342;-71
2023/09/25 10:27:24;;;;;;;;;4.67;4.67;;;;;25.20;37.27;101673.91;4953150;28;45549;-70
2023/09/25 10:30:06;;;;;;;;;7.00;5.75;;;;;25.06;38.11;101679.44;4949688;28;45638;-74
2023/09/25 10:32:35;;;;;;;;;8.00;8.00;;;;;24.77;38.48;101658.19;4947986;28;45501;-70
2023/09/25 10:35:39;;;;;;;;;6.00;4.00;;;;;24.77;38.74;101683.50;4948127;28;45299;-70
2023/09/25 10:38:13;;;;;;;;;6.00;5.00;;;;;24.73;39.07;101678.69;4896734;28;45414;-70
2023/09/25 10:40:46;;;;;;;;;10.00;9.00;;;;;24.60;39.29;101665.97;4942250;28;45580;-71
2023/09/25 10:43:12;;;;;;;;;6.67;6.00;;;;;24.60;38.96;101676.03;4952026;28;45467;-69
2023/09/25 10:45:38;;;;;;;;;6.33;6.33;;;;;24.61;38.97;101683.13;4946720;28;45489;-70
2023/09/25 10:48:04;;;;;;;;;6.00;4.67;;;;;24.36;39.54;101639.50;4956333;28;45588;-71
2023/09/25 10:50:29;;;;;;;;;7.00;4.33;;;;;24.46;39.42;101643.47;4933461;28;46875;-71
2023/09/25 10:52:55;;;;;;;;;6.00;3.33;;;;;24.58;39.56;101649.88;4950131;28;45498;-72
2023/09/25 10:55:21;;;;;;;;;4.67;4.33;;;;;24.74;39.29;101673.03;4930711;28;45358;-70
2023/09/25 10:57:46;;;;;;;;;7.33;5.00;;;;;24.74;39.03;101661.34;4932888;28;45601;-71
2023/09/25 11:00:15;;;;;;;;;4.33;4.33;;;;;24.66;39.40;101639.84;4942004;28;46450;-70
2023/09/25 11:02:40;;;;;;;;;7.00;6.00;;;;;24.71;39.56;101650.91;4941799;28;45582;-70
2023/09/25 11:05:09;;;;;;;;;6.00;6.00;;;;;24.71;39.42;101657.16;4943646;28;45413;-70
2023/09/25 11:07:36;;;;;;;;;4.00;3.67;;;;;24.68;39.44;101670.38;4955291;28;45386;-74
2023/09/25 11:10:02;;;;;;;;;7.00;5.00;;;;;24.75;39.72;101684.75;4958868;28;45761;-75
2023/09/25 11:12:29;;;;;;;;;4.00;4.00;;;;;24.47;39.80;101634.25;4953915;28;45512;-74
2023/09/25 11:14:54;;;;;;;;;3.33;3.33;;;;;24.70;39.62;101681.84;4954971;28;45392;-71
2023/09/25 11:17:20;;;;;;;;;4.00;4.00;;;;;24.66;39.65;101686.06;4963469;28;45292;-69
2023/09/25 11:19:45;;;;;;;;;6.33;6.33;;;;;24.72;39.79;101686.03;4947776;28;46408;-70
2023/09/25 11:22:11;;;;;;;;;13.00;12.00;;;;;24.78;39.57;101687.03;4949835;28;45562;-69